Time;durP1;ratioP1;P1;durP2;ratioP2;P2;SDS_P1;SDS_P2;PMS_P1;PMS_P2;Temp;Humidity;BMP_temperature;BMP_pressure;BME280_temperature;BME280_humidity;BME280_pressure;Samples;Min_cycle;Max_cycle;Signal;HPM_P1;HPM_P2
2021/05/20 00:00:54;;;;;;;4.70;3.05;;;;;;;10.74;100.00;99649.38;5075157;28;20071;-74
2021/05/20 00:03:23;;;;;;;5.45;3.03;;;;;;;10.68;100.00;99644.47;5075267;28;20075;-74
2021/05/20 00:05:52;;;;;;;4.55;2.67;;;;;;;10.63;100.00;99651.97;5075070;28;20036;-74
2021/05/20 00:08:20;;;;;;;5.63;3.20;;;;;;;10.66;100.00;99647.25;5075388;28;20075;-74
2021/05/20 00:10:48;;;;;;;4.50;2.70;;;;;;;10.65;100.00;99647.38;5074836;28;20040;-75
2021/05/20 00:13:16;;;;;;;5.70;3.00;;;;;;;10.70;100.00;99650.53;5074933;28;20048;-74
2021/05/20 00:15:44;;;;;;;5.25;3.20;;;;;;;10.63;100.00;99652.81;5074977;28;20078;-75
2021/05/20 00:18:11;;;;;;;5.35;3.10;;;;;;;10.62;100.00;99650.25;5075086;28;20040;-74
2021/05/20 00:20:40;;;;;;;4.82;2.90;;;;;;;10.59;100.00;99645.97;5075044;28;20048;-74
2021/05/20 00:23:09;;;;;;;4.90;2.67;;;;;;;10.62;100.00;99644.91;5074448;28;20040;-74
2021/05/20 00:25:36;;;;;;;4.93;3.10;;;;;;;10.52;100.00;99644.72;5074814;28;20090;-75
2021/05/20 00:28:05;;;;;;;5.18;2.75;;;;;;;10.48;100.00;99652.03;5074327;28;20048;-74
2021/05/20 00:30:32;;;;;;;6.03;3.20;;;;;;;10.45;100.00;99654.09;5074969;28;20363;-73
2021/05/20 00:33:01;;;;;;;4.82;3.05;;;;;;;10.47;100.00;99654.81;5074548;28;20048;-71
2021/05/20 00:35:28;;;;;;;4.10;3.20;;;;;;;10.48;100.00;99641.38;5075013;28;20067;-72
2021/05/20 00:37:56;;;;;;;6.63;3.40;;;;;;;10.58;100.00;99655.78;5074367;28;20075;-73
2021/05/20 00:40:25;;;;;;;5.93;3.50;;;;;;;10.49;100.00;99650.22;5074465;28;20048;-73
2021/05/20 00:42:53;;;;;;;6.28;3.22;;;;;;;10.49;100.00;99652.91;5074357;28;20063;-73
2021/05/20 00:45:21;;;;;;;6.70;3.72;;;;;;;10.50;100.00;99651.94;5074331;28;20052;-73
2021/05/20 00:47:48;;;;;;;5.45;3.63;;;;;;;10.49;100.00;99655.56;5074127;28;20048;-72
2021/05/20 00:50:16;;;;;;;6.07;3.70;;;;;;;10.49;100.00;99660.91;5074246;28;20052;-70
2021/05/20 00:52:44;;;;;;;5.88;3.60;;;;;;;10.52;100.00;99661.56;5074210;28;20040;-71
2021/05/20 00:55:16;;;;;;;6.13;4.10;;;;;;;10.46;100.00;99653.13;5074089;28;20044;-71
2021/05/20 00:57:45;;;;;;;6.03;4.07;;;;;;;10.49;100.00;99655.56;5074342;28;20040;-71
2021/05/20 01:00:15;;;;;;;5.90;4.20;;;;;;;10.47;100.00;99662.81;5072503;28;20041;-71
2021/05/20 01:02:43;;;;;;;5.63;3.88;;;;;;;10.49;100.00;99651.09;5074158;28;20036;-72
2021/05/20 01:05:13;;;;;;;6.05;4.30;;;;;;;10.51;100.00;99651.81;5073865;28;20079;-72
2021/05/20 01:07:41;;;;;;;6.15;4.07;;;;;;;10.41;100.00;99631.25;5073792;28;20067;-73
2021/05/20 01:10:11;;;;;;;6.97;3.72;;;;;;;10.48;100.00;99649.38;5073564;28;20048;-73
2021/05/20 01:12:40;;;;;;;5.80;3.85;;;;;;;10.45;100.00;99635.41;5074092;28;20119;-73
2021/05/20 01:15:20;;;;;;;5.78;3.88;;;;;;;10.53;100.00;99649.06;5073490;28;20045;-73
2021/05/20 01:17:50;;;;;;;6.53;4.22;;;;;;;10.47;100.00;99639.69;5072392;28;20489;-73
2021/05/20 01:20:20;;;;;;;6.95;4.18;;;;;;;10.49;100.00;99637.75;5074013;28;20075;-72
2021/05/20 01:22:49;;;;;;;5.78;4.30;;;;;;;10.45;100.00;99628.28;5073663;28;20127;-73
2021/05/20 01:25:17;;;;;;;6.47;3.92;;;;;;;10.47;100.00;99644.16;5073951;28;20105;-73
2021/05/20 01:27:46;;;;;;;5.97;4.18;;;;;;;10.48;100.00;99640.53;5073662;28;20481;-72
2021/05/20 01:30:15;;;;;;;6.38;4.35;;;;;;;10.38;100.00;99639.47;5073479;28;20477;-73
2021/05/20 01:32:43;;;;;;;6.60;4.05;;;;;;;10.50;100.00;99643.94;5073406;28;20045;-74
2021/05/20 01:35:12;;;;;;;10.00;4.18;;;;;;;10.42;100.00;99635.59;5073274;28;20051;-73
2021/05/20 01:37:40;;;;;;;7.05;4.47;;;;;;;10.41;100.00;99647.25;5073409;28;20497;-75
2021/05/20 01:40:10;;;;;;;6.68;4.80;;;;;;;10.30;100.00;99642.66;5072833;28;20044;-75
2021/05/20 01:42:38;;;;;;;6.45;4.65;;;;;;;10.38;100.00;99639.47;5073411;28;20041;-75
2021/05/20 01:45:07;;;;;;;7.20;4.28;;;;;;;10.40;100.00;99642.88;5072803;28;20075;-75
2021/05/20 01:47:37;;;;;;;7.15;4.95;;;;;;;10.39;100.00;99646.50;5073798;28;20048;-73
2021/05/20 01:50:06;;;;;;;6.75;4.47;;;;;;;10.38;100.00;99647.47;5073154;28;20398;-75
2021/05/20 01:52:34;;;;;;;6.70;4.60;;;;;;;10.31;100.00;99652.34;5073360;28;20048;-72
2021/05/20 01:55:04;;;;;;;9.57;5.38;;;;;;;10.30;100.00;99646.16;5072835;28;20044;-73
2021/05/20 01:57:32;;;;;;;8.07;4.63;;;;;;;10.37;100.00;99645.75;5073129;28;20078;-73
2021/05/20 02:00:01;;;;;;;6.82;4.53;;;;;;;10.40;100.00;99645.53;5072995;28;20063;-73
2021/05/20 02:02:30;;;;;;;7.03;4.85;;;;;;;10.44;100.00;99657.72;5073139;28;20117;-73
2021/05/20 02:04:58;;;;;;;6.70;4.50;;;;;;;10.37;100.00;99657.28;5071623;28;20477;-74
2021/05/20 02:07:26;;;;;;;7.75;5.07;;;;;;;10.39;100.00;99650.00;5073048;28;20151;-73
2021/05/20 02:09:53;;;;;;;7.07;4.22;;;;;;;10.34;100.00;99645.97;5072717;28;20044;-75
2021/05/20 02:12:22;;;;;;;6.55;4.40;;;;;;;10.39;100.00;99655.34;5072047;28;20048;-74
2021/05/20 02:14:51;;;;;;;5.82;3.88;;;;;;;10.41;100.00;99661.41;5073087;28;20460;-74
2021/05/20 02:17:19;;;;;;;5.35;3.53;;;;;;;10.39;100.00;99655.34;5073035;28;20091;-75
2021/05/20 02:19:46;;;;;;;5.85;3.70;;;;;;;10.39;100.00;99654.50;5072779;28;20083;-74
2021/05/20 02:22:14;;;;;;;6.15;3.90;;;;;;;10.36;100.00;99660.03;5072437;28;20045;-74
2021/05/20 02:24:42;;;;;;;5.85;3.63;;;;;;;10.35;100.00;99658.34;5072661;28;20469;-74
2021/05/20 02:27:10;;;;;;;5.97;3.65;;;;;;;10.26;100.00;99660.69;5072727;28;20045;-73
2021/05/20 02:29:38;;;;;;;6.45;3.92;;;;;;;10.12;100.00;99633.22;5072675;28;20446;-74
2021/05/20 02:32:06;;;;;;;7.32;4.25;;;;;;;10.33;100.00;99666.44;5072433;28;20048;-75
2021/05/20 02:34:34;;;;;;;7.57;4.10;;;;;;;10.37;100.00;99664.41;5073016;28;20051;-74
2021/05/20 02:37:01;;;;;;;5.22;3.88;;;;;;;10.27;100.00;99665.03;5072391;28;20131;-74
2021/05/20 02:39:29;;;;;;;7.43;4.43;;;;;;;10.39;100.00;99667.81;5072564;28;20072;-71
2021/05/20 02:41:57;;;;;;;6.53;4.65;;;;;;;10.27;100.00;99656.19;5072768;28;20060;-71
2021/05/20 02:44:25;;;;;;;6.63;4.22;;;;;;;10.31;100.00;99679.84;5073034;28;20051;-72
2021/05/20 02:46:54;;;;;;;8.10;5.10;;;;;;;10.28;100.00;99684.56;5072576;28;20124;-70
2021/05/20 02:49:22;;;;;;;6.80;4.20;;;;;;;10.30;100.00;99688.81;5072677;28;20119;-70
2021/05/20 02:51:50;;;;;;;9.38;4.93;;;;;;;10.34;100.00;99688.63;5072552;28;20434;-70
2021/05/20 02:54:18;;;;;;;8.98;4.95;;;;;;;10.37;100.00;99693.75;5072132;28;20036;-70
2021/05/20 02:56:47;;;;;;;6.35;4.68;;;;;;;10.37;100.00;99693.75;5072763;28;20052;-70
2021/05/20 02:59:15;;;;;;;7.47;4.55;;;;;;;10.23;100.00;99671.56;5072241;28;20474;-70
2021/05/20 03:01:44;;;;;;;6.82;4.68;;;;;;;10.36;100.00;99700.03;5072563;28;20390;-70
2021/05/20 03:04:13;;;;;;;7.75;5.00;;;;;;;10.39;100.00;99706.00;5072209;28;20048;-69
2021/05/20 03:06:41;;;;;;;7.90;4.90;;;;;;;10.42;100.00;99696.94;5072653;28;20492;-69
2021/05/20 03:09:11;;;;;;;7.90;5.15;;;;;;;10.37;100.00;99705.25;5072473;28;20119;-69
2021/05/20 03:11:39;;;;;;;7.97;4.63;;;;;;;10.22;100.00;99680.47;5072814;28;20046;-70
2021/05/20 03:14:07;;;;;;;7.47;4.88;;;;;;;10.34;100.00;99710.81;5072220;28;20083;-70
2021/05/20 03:16:35;;;;;;;7.28;5.45;;;;;;;10.37;100.00;99707.94;5072334;28;20056;-69
2021/05/20 03:19:03;;;;;;;7.32;5.45;;;;;;;10.34;100.00;99713.47;5071865;28;20445;-70
2021/05/20 03:21:31;;;;;;;7.10;4.95;;;;;;;10.34;100.00;99716.13;5072227;28;20044;-69
2021/05/20 03:23:59;;;;;;;7.93;5.57;;;;;;;10.36;100.00;99708.03;5072646;28;20505;-70
2021/05/20 03:26:27;;;;;;;8.40;5.15;;;;;;;10.46;100.00;99709.13;5075772;28;20455;-73
2021/05/20 03:28:55;;;;;;;7.55;5.93;;;;;;;10.37;100.00;99705.25;5075808;28;20048;-72
2021/05/20 03:31:23;;;;;;;7.78;5.30;;;;;;;10.33;100.00;99711.78;5075630;28;20070;-73
2021/05/20 03:33:51;;;;;;;7.07;5.43;;;;;;;10.31;100.00;99706.50;5075773;28;20033;-72
2021/05/20 03:36:22;;;;;;;7.13;5.20;;;;;;;10.40;100.00;99709.53;5075768;28;20877;-73
2021/05/20 03:38:50;;;;;;;8.13;5.35;;;;;;;10.31;100.00;99711.00;5076104;28;20060;-73
2021/05/20 03:41:18;;;;;;;8.43;5.10;;;;;;;10.34;100.00;99705.47;5075613;28;20537;-74
2021/05/20 03:43:46;;;;;;;8.50;5.80;;;;;;;10.34;100.00;99710.81;5075354;28;20083;-75
2021/05/20 03:46:28;;;;;;;8.05;5.25;;;;;;;10.29;100.00;99702.25;5075580;28;20438;-73
2021/05/20 03:48:56;;;;;;;7.88;5.68;;;;;;;10.37;100.00;99707.06;5075863;28;20052;-74
2021/05/20 03:51:24;;;;;;;8.88;5.85;;;;;;;10.36;100.00;99702.69;5075393;28;20043;-74
2021/05/20 03:53:52;;;;;;;8.65;5.18;;;;;;;10.36;100.00;99716.03;5075540;28;20051;-74
2021/05/20 03:56:20;;;;;;;7.82;5.60;;;;;;;10.39;100.00;99722.00;5075246;28;20063;-74
2021/05/20 03:58:48;;;;;;;7.65;6.07;;;;;;;10.34;100.00;99725.94;5075267;28;20040;-73
2021/05/20 04:01:16;;;;;;;8.50;6.32;;;;;;;10.35;100.00;99725.00;5075101;28;20045;-74
2021/05/20 04:03:44;;;;;;;11.15;8.02;;;;;;;10.37;100.00;99726.59;5075130;28;20071;-73
2021/05/20 04:06:11;;;;;;;9.93;7.35;;;;;;;10.30;100.00;99731.47;5073934;28;20390;-73
2021/05/20 04:08:39;;;;;;;10.75;7.32;;;;;;;10.30;100.00;99731.47;5075106;28;20144;-73
2021/05/20 04:11:09;;;;;;;8.30;5.88;;;;;;;10.30;100.00;99750.13;5075071;28;20049;-74
2021/05/20 04:13:38;;;;;;;8.52;5.95;;;;;;;10.35;100.00;99738.31;5074857;28;20139;-72
2021/05/20 04:16:08;;;;;;;9.55;6.43;;;;;;;10.30;100.00;99755.47;5074858;28;20166;-72
2021/05/20 04:18:35;;;;;;;9.48;6.30;;;;;;;10.29;100.00;99748.41;5075025;28;20045;-73
2021/05/20 04:21:05;;;;;;;7.93;6.22;;;;;;;10.25;100.00;99752.25;5074693;28;20048;-74
2021/05/20 04:23:33;;;;;;;10.65;7.13;;;;;;;10.27;100.00;99761.00;5074702;28;20041;-73
2021/05/20 04:26:01;;;;;;;7.53;5.63;;;;;;;10.29;100.00;99760.91;5074985;28;20041;-72
2021/05/20 04:28:32;;;;;;;9.95;6.60;;;;;;;10.27;100.00;99758.34;5075037;28;20072;-72
2021/05/20 04:31:00;;;;;;;10.68;6.65;;;;;;;10.31;100.00;99767.81;5074733;28;20049;-71
2021/05/20 04:33:27;;;;;;;9.13;6.32;;;;;;;10.31;100.00;99764.31;5074582;28;20036;-72
2021/05/20 04:35:55;;;;;;;8.98;6.10;;;;;;;10.34;100.00;99768.59;5073348;28;20102;-73
2021/05/20 04:38:23;;;;;;;9.40;6.72;;;;;;;10.28;100.00;99775.19;5074269;28;20043;-72
2021/05/20 04:40:51;;;;;;;8.55;6.72;;;;;;;10.32;100.00;99774.88;5074477;28;20057;-72
2021/05/20 04:43:19;;;;;;;8.20;6.63;;;;;;;10.37;100.00;99779.91;5074222;28;20460;-73
2021/05/20 04:45:48;;;;;;;8.10;6.47;;;;;;;10.35;100.00;99775.63;5074641;28;20040;-74
2021/05/20 04:48:15;;;;;;;8.40;6.22;;;;;;;10.30;100.00;99776.78;5074007;28;20543;-75
2021/05/20 04:50:43;;;;;;;8.18;6.30;;;;;;;10.31;100.00;99775.81;5074628;28;20126;-72
2021/05/20 04:53:11;;;;;;;10.18;7.78;;;;;;;10.27;100.00;99778.81;5073917;28;20401;-74
2021/05/20 04:55:39;;;;;;;11.55;6.85;;;;;;;10.28;100.00;99781.38;5074360;28;20041;-72
2021/05/20 04:58:07;;;;;;;8.95;6.40;;;;;;;10.30;100.00;99776.78;5073878;28;20051;-73
2021/05/20 05:00:34;;;;;;;9.75;6.65;;;;;;;10.25;100.00;99770.91;5074024;28;20052;-73
2021/05/20 05:03:03;;;;;;;9.77;7.45;;;;;;;10.28;100.00;99772.53;5073920;28;20408;-71
2021/05/20 05:05:31;;;;;;;10.13;7.57;;;;;;;10.28;100.00;99772.53;5073849;28;20044;-72
2021/05/20 05:07:59;;;;;;;10.57;6.47;;;;;;;10.25;100.00;99768.25;5073558;28;20044;-73
2021/05/20 05:10:27;;;;;;;11.77;8.13;;;;;;;10.27;100.00;99774.34;5073800;28;20456;-73
2021/05/20 05:12:55;;;;;;;10.98;7.72;;;;;;;10.33;100.00;99783.75;5074036;28;20083;-74
2021/05/20 05:15:22;;;;;;;10.43;7.53;;;;;;;10.43;100.00;99784.00;5073227;28;20064;-74
2021/05/20 05:17:51;;;;;;;10.18;7.45;;;;;;;10.42;100.00;99785.81;5073723;28;20048;-74
2021/05/20 05:20:21;;;;;;;10.63;8.02;;;;;;;10.46;100.00;99783.78;5073509;28;20460;-74
2021/05/20 05:22:48;;;;;;;11.90;8.48;;;;;;;10.46;100.00;99794.44;5073645;28;20044;-73
2021/05/20 05:25:16;;;;;;;10.85;8.15;;;;;;;10.50;100.00;99795.94;5073212;28;20126;-74
2021/05/20 05:27:44;;;;;;;12.15;8.73;;;;;;;10.54;100.00;99792.13;5073412;28;20048;-72
2021/05/20 05:30:17;;;;;;;10.65;7.90;;;;;;;10.53;100.00;99807.25;5073077;28;20040;-73
2021/05/20 05:32:46;;;;;;;13.55;9.23;;;;;;;10.58;100.00;99809.59;5073631;28;20132;-73
2021/05/20 05:35:13;;;;;;;12.38;8.30;;;;;;;10.59;100.00;99808.66;5073107;28;20041;-77
2021/05/20 05:37:42;;;;;;;10.30;7.90;;;;;;;10.54;100.00;99813.44;5073227;28;20378;-77
2021/05/20 05:40:13;;;;;;;9.90;7.57;;;;;;;10.58;100.00;99804.28;5072431;28;20040;-76
2021/05/20 05:42:44;;;;;;;12.13;7.50;;;;;;;10.57;100.00;99808.75;5073330;28;20041;-75
2021/05/20 05:45:12;;;;;;;11.50;9.25;;;;;;;10.62;100.00;99811.13;5072901;28;20082;-74
2021/05/20 05:47:40;;;;;;;10.95;8.88;;;;;;;10.60;100.00;99813.88;5072988;28;20406;-72
2021/05/20 05:50:11;;;;;;;11.80;8.98;;;;;;;10.65;100.00;99824.25;5072836;28;20093;-80
2021/05/20 05:52:39;;;;;;;12.70;9.60;;;;;;;10.68;100.00;99823.19;5073526;28;20044;-74
2021/05/20 05:55:09;;;;;;;11.98;9.57;;;;;;;10.65;100.00;99837.59;5072958;28;20048;-72
2021/05/20 05:57:37;;;;;;;12.02;8.13;;;;;;;10.65;100.00;99832.25;5073522;28;20053;-71
2021/05/20 06:00:07;;;;;;;14.27;9.85;;;;;;;10.66;99.79;99820.63;5071849;28;20496;-73
2021/05/20 06:02:35;;;;;;;12.98;9.40;;;;;;;10.75;99.97;99828.00;5072978;28;20501;-72
2021/05/20 06:05:04;;;;;;;12.55;9.90;;;;;;;10.71;99.67;99825.63;5072643;28;20132;-75
2021/05/20 06:07:35;;;;;;;15.05;10.20;;;;;;;10.79;97.66;99837.50;5072532;28;20036;-71
2021/05/20 06:10:04;;;;;;;14.15;10.60;;;;;;;10.80;98.09;99836.53;5072982;28;20040;-76
2021/05/20 06:12:33;;;;;;;13.88;11.23;;;;;;;10.86;97.82;99843.28;5072476;28;20037;-74
2021/05/20 06:15:01;;;;;;;14.98;10.95;;;;;;;10.82;97.05;99845.31;5065882;28;20040;-75
2021/05/20 06:17:29;;;;;;;13.75;10.40;;;;;;;10.78;96.97;99837.59;5072044;28;20051;-75
2021/05/20 06:19:58;;;;;;;15.23;11.02;;;;;;;10.84;97.09;99837.19;5064621;28;20040;-76
2021/05/20 06:22:26;;;;;;;14.73;11.35;;;;;;;10.84;96.53;99843.38;5072456;28;20435;-80
2021/05/20 06:24:53;;;;;;;15.10;11.27;;;;;;;10.89;97.25;99857.25;5072477;28;20044;-74
2021/05/20 06:27:22;;;;;;;15.80;12.13;;;;;;;10.86;97.45;99836.13;5072139;28;20114;-76
2021/05/20 06:29:52;;;;;;;15.70;12.25;;;;;;;10.99;96.52;99872.66;5072167;28;20045;-71
2021/05/20 06:32:20;;;;;;;12.10;10.15;;;;;;;11.05;94.87;99867.75;5072869;28;20051;-73
2021/05/20 06:34:48;;;;;;;16.23;11.95;;;;;;;11.10;95.06;99881.66;5072576;28;20072;-76
2021/05/20 06:37:15;;;;;;;12.63;10.35;;;;;;;11.09;95.16;99873.72;5072549;28;20044;-75
2021/05/20 06:39:43;;;;;;;15.32;10.88;;;;;;;11.12;95.46;99876.22;5073086;28;20048;-72
2021/05/20 06:42:14;;;;;;;13.32;11.27;;;;;;;11.14;94.90;99879.63;5072781;28;20048;-74
2021/05/20 06:44:42;;;;;;;19.13;11.95;;;;;;;11.14;95.58;99861.78;5072284;28;20468;-74
2021/05/20 06:47:11;;;;;;;13.70;10.88;;;;;;;11.22;95.00;99881.78;5071900;28;20045;-74
2021/05/20 06:49:39;;;;;;;14.18;11.23;;;;;;;11.25;95.22;99885.06;5072475;28;20696;-77
2021/05/20 06:52:07;;;;;;;14.38;11.32;;;;;;;11.24;94.96;99883.38;5072812;28;20052;-74
2021/05/20 06:54:37;;;;;;;15.00;12.15;;;;;;;11.16;96.45;99869.69;5072613;28;20044;-80
2021/05/20 06:57:07;;;;;;;15.98;11.32;;;;;;;11.25;96.01;99889.56;5072488;28;20052;-72
2021/05/20 07:02:24;;;;;;;14.75;11.98;;;;;;;11.20;96.82;99887.22;5076806;28;20481;-79
2021/05/20 07:04:51;;;;;;;16.33;12.40;;;;;;;11.28;97.03;99895.53;5075912;28;20049;-77
2021/05/20 07:07:24;;;;;;;17.33;12.63;;;;;;;11.30;97.11;99887.44;5075282;28;20458;-76
2021/05/20 07:09:53;;;;;;;15.38;12.10;;;;;;;11.37;95.88;99894.91;5075280;28;20053;-70
2021/05/20 07:12:21;;;;;;;16.17;11.65;;;;;;;11.35;96.11;99890.63;5075785;28;20147;-70
2021/05/20 07:14:49;;;;;;;15.57;12.77;;;;;;;11.44;96.24;99898.88;5075540;28;20043;-71
2021/05/20 07:17:17;;;;;;;17.70;12.32;;;;;;;11.50;95.86;99900.28;5074557;28;20139;-72
2021/05/20 07:19:46;;;;;;;17.35;12.57;;;;;;;11.55;96.70;99897.25;5075823;28;20041;-72
2021/05/20 07:22:13;;;;;;;15.50;12.40;;;;;;;11.62;95.64;99899.41;5075881;28;20040;-72
2021/05/20 07:24:44;;;;;;;15.88;12.00;;;;;;;11.58;95.50;99878.34;5075671;28;20119;-74
2021/05/20 07:27:12;;;;;;;16.92;13.02;;;;;;;11.63;94.73;99910.94;5075743;28;20120;-75
2021/05/20 07:29:40;;;;;;;14.77;11.85;;;;;;;11.61;93.98;99913.72;5075299;28;20051;-73
2021/05/20 07:32:10;;;;;;;16.27;12.18;;;;;;;11.74;94.16;99909.22;5075720;28;20319;-73
2021/05/20 07:34:38;;;;;;;16.63;13.10;;;;;;;11.78;95.32;99919.72;5077639;28;20063;-71
2021/05/20 07:37:07;;;;;;;15.95;13.55;;;;;;;11.80;95.42;99917.81;5076510;28;20051;-71
2021/05/20 07:39:35;;;;;;;18.35;14.18;;;;;;;11.83;95.01;99915.78;5075025;28;20072;-71
2021/05/20 07:42:03;;;;;;;17.80;14.00;;;;;;;11.77;93.33;99913.50;5075567;28;20056;-76
2021/05/20 07:44:31;;;;;;;18.40;14.07;;;;;;;11.90;93.19;99932.25;5075211;28;20389;-73
2021/05/20 07:46:59;;;;;;;17.58;13.20;;;;;;;11.83;93.11;99934.47;5075264;28;20044;-74
2021/05/20 07:49:27;;;;;;;16.92;13.02;;;;;;;11.79;93.73;99924.09;5075149;28;20102;-76
2021/05/20 07:51:55;;;;;;;16.40;13.13;;;;;;;11.77;93.45;99937.53;5075192;28;20127;-74
2021/05/20 07:54:24;;;;;;;17.92;13.43;;;;;;;11.81;92.60;99943.56;5075180;28;20044;-72
2021/05/20 07:56:52;;;;;;;16.23;11.88;;;;;;;11.95;91.53;99941.63;5075134;28;20044;-72
2021/05/20 07:59:20;;;;;;;16.42;12.77;;;;;;;11.95;92.58;99938.09;5074972;28;20049;-74
2021/05/20 08:01:53;;;;;;;19.35;13.23;;;;;;;12.02;92.99;99950.06;5074895;28;20048;-75
2021/05/20 08:04:24;;;;;;;16.65;12.90;;;;;;;12.00;92.26;99944.84;5075033;28;20067;-73
2021/05/20 08:07:18;;;;;;;16.10;12.90;;;;;;;12.04;92.61;99954.34;5075243;28;20459;-73
2021/05/20 08:09:49;;;;;;;17.45;13.32;;;;;;;12.03;92.96;99957.13;5074910;28;20043;-76
2021/05/20 08:12:17;;;;;;;17.40;12.93;;;;;;;12.02;92.78;99964.28;5075351;28;20395;-72
2021/05/20 08:14:44;;;;;;;18.83;13.10;;;;;;;12.02;92.31;99964.28;5074520;28;20044;-72
2021/05/20 08:17:13;;;;;;;16.23;13.45;;;;;;;12.04;92.48;99969.53;5074900;28;20437;-73
2021/05/20 08:19:44;;;;;;;19.77;12.68;;;;;;;12.09;91.47;99964.72;5074768;28;20550;-74
2021/05/20 08:22:12;;;;;;;18.00;13.02;;;;;;;11.85;92.01;99935.22;5056196;28;20041;-76
2021/05/20 08:24:40;;;;;;;15.68;11.85;;;;;;;11.97;92.06;99955.75;5054663;28;20045;-73
2021/05/20 08:27:11;;;;;;;16.05;12.77;;;;;;;12.07;94.23;99955.97;5054674;28;20049;-75
2021/05/20 08:29:39;;;;;;;13.48;11.68;;;;;;;12.22;91.66;99962.03;5054368;28;20048;-75
2021/05/20 08:32:07;;;;;;;19.08;13.07;;;;;;;12.33;91.60;99967.44;5054753;28;20067;-74
2021/05/20 08:34:35;;;;;;;18.27;12.93;;;;;;;12.12;93.07;99945.78;5054607;28;20045;-75
2021/05/20 08:37:03;;;;;;;21.95;13.98;;;;;;;12.41;93.67;99951.72;5054256;28;20049;-74
2021/05/20 08:39:31;;;;;;;16.63;13.27;;;;;;;12.39;93.81;99948.31;5054254;28;20053;-78
2021/05/20 08:41:59;;;;;;;17.70;13.30;;;;;;;12.53;92.26;99940.09;5053099;28;20056;-76
2021/05/20 08:44:29;;;;;;;20.05;14.90;;;;;;;12.42;94.89;99948.06;5067227;28;20039;-75
2021/05/20 08:47:07;;;;;;;18.13;14.35;;;;;;;12.64;92.20;99951.84;5074456;28;20086;-75
2021/05/20 08:49:34;;;;;;;15.63;11.15;;;;;;;12.38;92.28;99941.25;5074079;28;20448;-76
2021/05/20 08:52:03;;;;;;;18.80;14.38;;;;;;;12.66;93.68;99960.63;5074129;28;20052;-76
2021/05/20 08:54:46;;;;;;;21.00;14.40;;;;;;;12.84;91.31;99945.91;5074442;28;20433;-78
2021/05/20 08:57:14;;;;;;;18.77;13.48;;;;;;;12.92;89.76;99947.97;5074233;28;20049;-77
2021/05/20 08:59:42;;;;;;;19.75;15.32;;;;;;;13.10;90.37;99942.09;5072406;28;20048;-76
2021/05/20 09:02:22;;;;;;;20.88;14.73;;;;;;;13.30;88.69;99945.97;5074243;28;20119;-78
2021/05/20 09:05:01;;;;;;;18.20;13.57;;;;;;;13.44;86.79;99936.91;5073930;28;20037;-73
2021/05/20 09:07:34;;;;;;;18.40;14.15;;;;;;;13.68;87.18;99956.44;5073330;28;20075;-71
2021/05/20 09:10:10;;;;;;;16.20;12.40;;;;;;;13.54;87.36;99937.91;5072703;28;20549;-81
2021/05/20 09:12:38;;;;;;;17.30;13.32;;;;;;;13.74;85.77;99931.84;5073865;28;20106;-71
2021/05/20 09:15:19;;;;;;;17.40;14.30;;;;;;;13.83;84.64;99945.50;5073305;28;20048;-73
2021/05/20 09:17:48;;;;;;;18.88;13.70;;;;;;;13.65;82.81;99897.72;5072140;28;20461;-73
2021/05/20 09:20:18;;;;;;;16.95;12.25;;;;;;;13.90;82.60;99949.41;5072780;28;20047;-71
2021/05/20 09:23:01;;;;;;;16.55;12.45;;;;;;;14.08;83.03;99949.75;5072556;28;20036;-75
2021/05/20 09:25:31;;;;;;;13.65;11.65;;;;;;;14.20;81.33;99972.94;5073360;28;20059;-75
2021/05/20 09:28:00;;;;;;;16.80;12.60;;;;;;;14.46;82.04;99978.91;5073507;28;20072;-70
2021/05/20 09:30:30;;;;;;;18.40;12.18;;;;;;;14.33;81.39;99979.88;5073138;28;20055;-78
2021/05/20 09:33:00;;;;;;;16.60;11.98;;;;;;;14.07;79.31;99916.72;5073570;28;20047;-77
2021/05/20 09:35:29;;;;;;;18.58;13.52;;;;;;;14.55;82.04;99978.19;5073510;28;20177;-76
2021/05/20 09:38:01;;;;;;;12.73;10.07;;;;;;;14.27;77.60;99977.69;5073220;28;20043;-76
2021/05/20 09:40:34;;;;;;;15.07;11.88;;;;;;;14.63;79.65;99991.84;5072838;28;20527;-76
2021/05/20 09:43:14;;;;;;;16.17;10.93;;;;;;;14.07;79.71;99916.72;5073126;28;20117;-78
2021/05/20 09:45:44;;;;;;;16.55;11.20;;;;;;;14.58;79.76;99986.00;5073315;28;20405;-74
2021/05/20 09:48:12;;;;;;;14.27;11.75;;;;;;;14.93;79.36;99976.88;5073237;28;20448;-71
2021/05/20 09:50:43;;;;;;;17.17;10.68;;;;;;;14.66;77.89;99978.16;5072516;28;20078;-78
2021/05/20 09:53:13;;;;;;;12.40;10.05;;;;;;;14.72;78.60;99974.13;5073405;28;20041;-71
2021/05/20 09:55:50;;;;;;;14.60;11.48;;;;;;;14.99;78.16;99977.25;5073154;28;20048;-75
2021/05/20 09:58:19;;;;;;;13.27;11.32;;;;;;;14.98;77.93;99953.19;5072957;28;20115;-74
2021/05/20 10:00:48;;;;;;;13.70;10.68;;;;;;;15.15;76.45;99966.94;5072659;28;20037;-75
2021/05/20 10:03:19;;;;;;;14.38;10.80;;;;;;;15.43;77.30;99969.97;5072856;28;20048;-74
2021/05/20 10:05:48;;;;;;;13.60;9.40;;;;;;;15.09;74.22;99966.59;5073163;28;20041;-72
2021/05/20 10:08:17;;;;;;;13.25;9.77;;;;;;;15.11;74.89;99972.66;5072860;28;20105;-77
2021/05/20 10:10:46;;;;;;;13.23;10.18;;;;;;;15.09;76.54;99971.97;5072433;28;20055;-76
2021/05/20 10:13:16;;;;;;;13.65;10.82;;;;;;;15.05;77.36;99973.16;5072325;28;20048;-77
2021/05/20 10:15:44;;;;;;;12.77;9.93;;;;;;;15.27;75.82;99964.19;5072685;28;20072;-77
2021/05/20 10:18:15;;;;;;;14.40;10.30;;;;;;;15.20;75.85;99974.59;5072913;28;20048;-76
2021/05/20 10:20:45;;;;;;;14.25;9.43;;;;;;;15.31;75.63;99974.53;5065941;28;20098;-76
2021/05/20 10:23:14;;;;;;;13.50;9.93;;;;;;;15.29;75.13;99962.22;5054291;28;20037;-77
2021/05/20 10:25:44;;;;;;;17.13;10.95;;;;;;;15.62;74.03;99958.53;5053903;28;20067;-76
2021/05/20 10:28:13;;;;;;;15.32;9.73;;;;;;;15.49;73.51;99953.31;5053078;28;20044;-77
2021/05/20 10:30:42;;;;;;;13.00;9.85;;;;;;;15.69;72.89;99955.19;5052246;28;20053;-76
2021/05/20 10:33:11;;;;;;;11.93;8.80;;;;;;;15.40;72.49;99960.31;5052691;28;20045;-76
2021/05/20 10:35:42;;;;;;;11.80;9.38;;;;;;;15.56;72.00;99959.03;5056545;28;20132;-76
2021/05/20 10:38:14;;;;;;;14.07;9.35;;;;;;;15.55;71.34;99974.31;5056932;28;20069;-76
2021/05/20 10:40:42;;;;;;;12.98;9.18;;;;;;;15.61;73.36;99965.75;5056083;28;20521;-77
2021/05/20 10:43:13;;;;;;;12.77;9.43;;;;;;;15.80;71.77;99934.56;5058001;28;20131;-77
2021/05/20 10:45:41;;;;;;;12.27;8.82;;;;;;;15.82;71.10;99954.97;5076567;28;20068;-77
2021/05/20 10:48:20;;;;;;;12.98;8.35;;;;;;;15.83;69.36;99945.09;5076613;28;20049;-76
2021/05/20 10:51:17;;;;;;;11.10;8.05;;;;;;;15.97;67.63;99953.66;5075904;28;20040;-75
2021/05/20 10:53:51;;;;;;;12.32;7.95;;;;;;;16.20;70.52;99950.75;5076597;28;20136;-76
2021/05/20 10:56:52;;;;;;;11.75;7.10;;;;;;;16.12;68.26;99950.63;5076279;28;20596;-77
2021/05/20 10:59:41;;;;;;;10.90;7.50;;;;;;;16.27;67.15;99946.56;5076440;28;20044;-80
2021/05/20 11:02:39;;;;;;;9.95;8.38;;;;;;;16.49;67.76;99949.03;5076512;28;20093;-77
2021/05/20 11:05:54;;;;;;;11.27;8.00;;;;;;;16.58;69.39;99937.44;5076343;28;20044;-77
2021/05/20 11:08:55;;;;;;;10.95;7.70;;;;;;;16.52;67.75;99932.63;5076228;28;20420;-77
2021/05/20 11:11:45;;;;;;;9.43;7.47;;;;;;;16.57;64.80;99930.34;5041416;28;20151;-74
2021/05/20 11:14:41;;;;;;;9.35;6.47;;;;;;;16.43;64.40;99941.53;5067136;28;20388;-75
2021/05/20 11:17:38;;;;;;;12.10;6.57;;;;;;;16.68;63.25;99931.22;5075793;28;20086;-77
2021/05/20 11:20:44;;;;;;;11.65;7.22;;;;;;;16.80;62.40;99931.00;5075420;28;20055;-76
2021/05/20 11:23:37;;;;;;;11.20;7.10;;;;;;;16.66;65.37;99928.66;5076049;28;20040;-74
2021/05/20 11:26:11;;;;;;;7.40;5.72;;;;;;;16.60;64.18;99922.00;5075571;28;20037;-75
2021/05/20 11:28:41;;;;;;;10.10;5.95;;;;;;;16.92;61.52;99923.63;5075134;28;20058;-77
2021/05/20 11:31:09;;;;;;;8.05;5.40;;;;;;;17.14;60.84;99917.97;5078727;28;20481;-77
2021/05/20 11:33:48;;;;;;;9.05;5.75;;;;;;;17.34;59.84;99923.34;5075221;28;20555;-78
2021/05/20 11:36:16;;;;;;;8.57;5.35;;;;;;;17.38;59.34;99919.38;5075609;28;20049;-75
2021/05/20 11:39:00;;;;;;;8.40;5.05;;;;;;;17.45;57.63;99923.19;5075603;28;20041;-79